Etusivu
METAR-TAF:

METAR-TAF

Lentoasemat :

Pärnun lentoasema

Pärnu, Viro

Leveyspiiri: 58-25-09N, Pituuspiiri: 024-28-22E, korkeus merenpinnasta: 14 m

Tämänhetkinen sää

Tämä raportti tehtiin 4 tuntia ja 34 minuuttia sitten, kello 13.50 UTC
Tuuli 5 kn idästä, vaihdellen koillisen ja idän/kaakon välillä
Lämpötila 2°C
Kosteus 80%
Ilmanpaine 1037 hPa
Näkyvyys 10 km tai enemmän
Muutamia pilviä 1000 ft:n korkeudessa
Hajonneita pilviä 2200 ft:n korkeudessa

METAR: EEPU 191350Z 08005KT 050V120 9999 FEW010 BKN022 02/M01 Q1037

Aika: 20:24 (18:24 UTC)


TAF: puuttuu

Säähavainnot ja -ennusteet yli 4000 lentoasemalta (METAR- ja TAF-raportit).

Käytössä olevat sääasemat on merkitty karttaan keltaisilla ja punaisilla pisteillä.

Aseta hiiri pisteen päälle nähdäksesi sääaseman nimen.

Klikkaa sitten nähdäksesi säähavainnot ja -ennusteet.

Kartan vaihtaminen: klikkaa mustalla rastilla varustettuja vihreitä pisteitä, niin voit zoomata sisään; viivalla varustettua vihreää pistettä, niin voit zoomata ulos tai vihreitä nuolia, niin pääset viereisille kartoille.


METAR-TAF: